Ralston, Wyoming
Current Conditions -  °F | °C
As of 7:55 AM on Wednesday 26 Nov 2014 (Local Time) from KPOY Reporting Station
Light Snow Light Snow  
Wind Chill: 16°   Ceiling: 200
Heat Index: 23°   Visibility: 0.75mi
Dew Point: 23°   Wind: 6mph
Humidity: 100%   Direction: 140°SE
Pressure: 30.12"   Gusts: NA
Location:  44.72°N, 108.87°W
Report Text: KPOY 261455Z AUTO 14005KT 3/4SM -SN OVC002 M05/M05 A3012 RMK AO2
Loading
Personal Weather Stations






























Interactive Weather Map New forecast layout! Learn more

10-Day Weather Forecast

Advertisements
Track Severe Weather on mobile